LKMT

Ostrava Leos Janáček Airport

Ostrava, Czech Republic
METAR LKMT 210130Z VRB01KT 2500 BR NSC M08/M10 Q1021 R04/31//95 NOSIG
Observed Flight Rules
Jan-21 @ 01:30 UTC (15 minutes ago) Instrument Flight Rules
Wind Visibility Clouds Conditions
Variable at 1 knots 2,494 meters
  • Clear skies
  • Mist
Temperatures Readings
Current -8°C / 18°F
Dewpoint -10°C / 14°F
Humidity 86%
Altimeter 30.15" Hg
Pressure 1020.92 hPa
Elevation 256
METAR LKMT 210130Z VRB01KT 2500 BR NSC M08/M10 Q1021 R04/31//95 NOSIG
Observed Flight Rules
Jan-21 @ 01:30 UTC
(15 minutes ago)
IFR
Wind Visibility
Variable at 1 knots 2,494 meters
Clouds
  • Clear skies
Conditions
  • Mist
Temperature Dewpoint
-8°C / 18°F -10°C / 14°F
Humidity Altimeter Pressure
86% 30.15" Hg 1020.92 hPa